Time;durP1;ratioP1;P1;durP2;ratioP2;P2;SDS_P1;SDS_P2;PMS_P1;PMS_P2;Temp;Humidity;BMP_temperature;BMP_pressure;BME280_temperature;BME280_humidity;BME280_pressure;Samples;Min_cycle;Max_cycle;Signal;HPM_P1;HPM_P2
2021/10/06 00:01:32;;;;;;;9.02;5.87;;;;;;;6.81;100.00;102953.50;2583047;55;20113;-74
2021/10/06 00:04:00;;;;;;;11.85;5.80;;;;;;;6.79;100.00;102956.16;2583274;55;20649;-74
2021/10/06 00:06:27;;;;;;;8.48;5.28;;;;;;;6.74;100.00;102960.72;2583908;55;20185;-74
2021/10/06 00:08:54;;;;;;;8.35;5.97;;;;;;;6.68;100.00;102945.81;2584038;55;20188;-74
2021/10/06 00:11:22;;;;;;;9.45;5.30;;;;;;;6.69;100.00;102952.00;2583946;55;20113;-73
2021/10/06 00:13:49;;;;;;;10.32;5.37;;;;;;;6.65;100.00;102950.31;2584013;55;20131;-73
2021/10/06 00:16:17;;;;;;;14.15;5.53;;;;;;;6.64;100.00;102949.44;2584144;55;20125;-73
2021/10/06 00:18:45;;;;;;;8.73;6.18;;;;;;;6.60;100.00;102950.44;2583894;55;20113;-74
2021/10/06 00:21:13;;;;;;;8.82;6.05;;;;;;;6.58;100.00;102957.56;2583741;55;20520;-74
2021/10/06 00:23:41;;;;;;;11.15;6.32;;;;;;;6.51;100.00;102946.22;2583944;55;20112;-73
2021/10/06 00:26:08;;;;;;;8.45;6.15;;;;;;;6.49;100.00;102958.63;2583979;55;20143;-73
2021/10/06 00:28:36;;;;;;;9.18;5.68;;;;;;;6.47;100.00;102952.47;2583906;55;20610;-73
2021/10/06 00:31:04;;;;;;;8.57;5.50;;;;;;;6.39;100.00;102952.66;2583901;55;20135;-73
2021/10/06 00:33:31;;;;;;;8.88;6.10;;;;;;;6.42;100.00;102951.72;2583860;55;20109;-74
2021/10/06 00:35:58;;;;;;;9.63;5.90;;;;;;;6.37;100.00;102948.28;2583844;55;20590;-73
2021/10/06 00:38:26;;;;;;;8.88;5.50;;;;;;;6.39;100.00;102946.47;2583633;55;20545;-73
2021/10/06 00:40:54;;;;;;;10.70;5.85;;;;;;;6.39;100.00;102934.09;2583812;55;20101;-73
2021/10/06 00:43:24;;;;;;;9.45;6.18;;;;;;;6.39;100.00;102938.50;2583659;55;20105;-74
2021/10/06 00:45:51;;;;;;;8.27;5.28;;;;;;;6.33;100.00;102942.16;2583787;55;20157;-73
2021/10/06 00:48:18;;;;;;;8.70;6.18;;;;;;;6.33;100.00;102941.31;2578665;55;20613;-73
2021/10/06 00:50:46;;;;;;;8.60;5.45;;;;;;;6.23;100.00;102936.22;2583727;55;20127;-74
2021/10/06 00:53:13;;;;;;;13.40;5.85;;;;;;;6.24;100.00;102948.56;2583859;55;20113;-73
2021/10/06 00:55:42;;;;;;;8.45;5.43;;;;;;;6.19;100.00;102945.13;2583852;55;20117;-74
2021/10/06 00:58:09;;;;;;;9.02;5.78;;;;;;;6.18;100.00;102947.81;2583833;55;20117;-73
2021/10/06 01:00:36;;;;;;;11.07;6.05;;;;;;;6.11;100.00;102947.94;2583759;55;20135;-73
2021/10/06 01:03:04;;;;;;;7.45;5.57;;;;;;;6.07;100.00;102953.31;2583640;55;20121;-73
2021/10/06 01:05:31;;;;;;;8.75;5.90;;;;;;;6.03;100.00;102943.69;2583560;55;20113;-73
2021/10/06 01:07:59;;;;;;;10.40;6.00;;;;;;;5.97;100.00;102940.22;2583742;55;20120;-74
2021/10/06 01:10:27;;;;;;;10.43;6.55;;;;;;;6.01;100.00;102949.00;2583718;55;20137;-74
2021/10/06 01:12:55;;;;;;;9.75;6.35;;;;;;;6.02;100.00;102957.84;2583714;55;20129;-73
2021/10/06 01:15:22;;;;;;;9.43;5.60;;;;;;;5.96;100.00;102950.84;2583588;55;20169;-73
2021/10/06 01:17:52;;;;;;;10.80;6.72;;;;;;;5.88;100.00;102956.31;2583686;55;20117;-73
2021/10/06 01:20:19;;;;;;;9.60;5.95;;;;;;;5.88;100.00;102958.94;2583681;55;20611;-74
2021/10/06 01:22:47;;;;;;;10.50;6.28;;;;;;;5.88;100.00;102951.00;2583748;55;20109;-73
2021/10/06 01:25:16;;;;;;;11.52;6.37;;;;;;;5.87;100.00;102948.41;2583651;55;20144;-74
2021/10/06 01:27:44;;;;;;;10.95;7.15;;;;;;;5.85;100.00;102953.72;2583729;55;20139;-73
2021/10/06 01:30:14;;;;;;;10.02;6.62;;;;;;;5.80;100.00;102955.56;2583459;55;20105;-74
2021/10/06 01:32:43;;;;;;;8.60;5.75;;;;;;;5.73;100.00;102946.88;2583760;55;20105;-73
2021/10/06 01:35:13;;;;;;;10.77;5.87;;;;;;;5.77;100.00;102955.63;2578405;55;20125;-72
2021/10/06 01:37:41;;;;;;;12.32;6.40;;;;;;;5.74;100.00;102958.34;2583677;55;20134;-73
2021/10/06 01:40:13;;;;;;;13.00;7.30;;;;;;;5.75;100.00;102950.34;2583598;55;20121;-73
2021/10/06 01:42:40;;;;;;;9.90;6.62;;;;;;;5.63;100.00;102932.94;2583740;55;20112;-73
2021/10/06 01:45:17;;;;;;;12.93;7.80;;;;;;;5.68;100.00;102944.31;2583702;55;20101;-73
2021/10/06 01:47:44;;;;;;;11.85;6.97;;;;;;;5.61;100.00;102939.16;2583688;55;20550;-74
2021/10/06 01:50:11;;;;;;;8.68;5.28;;;;;;;5.61;100.00;102942.69;2583689;55;20124;-73
2021/10/06 01:52:38;;;;;;;10.18;6.43;;;;;;;5.55;100.00;102943.66;2583395;55;20113;-73
2021/10/06 01:55:06;;;;;;;12.85;6.95;;;;;;;5.53;100.00;102939.31;2578141;55;20128;-73
2021/10/06 01:57:34;;;;;;;11.43;7.37;;;;;;;5.47;100.00;102942.94;2583632;55;20538;-73
2021/10/06 02:00:01;;;;;;;11.50;6.25;;;;;;;5.46;100.00;102935.91;2583650;55;20616;-73
2021/10/06 02:02:28;;;;;;;9.93;6.68;;;;;;;5.41;100.00;102946.59;2583576;55;20121;-73
2021/10/06 02:04:55;;;;;;;10.98;7.03;;;;;;;5.41;100.00;102933.34;2583536;55;20113;-73
2021/10/06 02:07:23;;;;;;;9.13;6.93;;;;;;;5.34;100.00;102934.34;2583666;55;20113;-73
2021/10/06 02:09:50;;;;;;;13.57;8.23;;;;;;;5.34;100.00;102938.75;2583565;55;20152;-73
2021/10/06 02:12:17;;;;;;;12.30;7.43;;;;;;;5.31;100.00;102938.81;2583646;55;20128;-73
2021/10/06 02:14:44;;;;;;;14.23;7.12;;;;;;;5.36;100.00;102944.87;2583520;55;20109;-73
2021/10/06 02:17:11;;;;;;;10.95;6.47;;;;;;;5.33;100.00;102929.06;2583400;55;20129;-73
2021/10/06 02:19:38;;;;;;;9.18;6.47;;;;;;;5.34;100.00;102934.34;2583263;55;20499;-74
2021/10/06 02:22:06;;;;;;;12.40;7.82;;;;;;;5.29;100.00;102939.72;2583401;55;20108;-74
2021/10/06 02:24:33;;;;;;;10.30;6.62;;;;;;;5.26;100.00;102934.50;2583447;55;20130;-74
2021/10/06 02:27:00;;;;;;;11.90;7.65;;;;;;;5.28;100.00;102934.44;2583424;55;20139;-73
2021/10/06 02:29:27;;;;;;;12.43;7.12;;;;;;;5.24;100.00;102932.75;2583536;55;20699;-74
2021/10/06 02:31:55;;;;;;;12.48;8.07;;;;;;;5.25;100.00;102934.50;2583343;55;20121;-74
2021/10/06 02:34:22;;;;;;;14.50;7.57;;;;;;;5.25;100.00;102934.50;2583461;55;20117;-74
2021/10/06 02:36:49;;;;;;;11.77;7.72;;;;;;;5.24;100.00;102940.69;2583379;55;20627;-73
2021/10/06 02:39:16;;;;;;;11.95;7.57;;;;;;;5.24;100.00;102932.75;2583455;55;20137;-74
2021/10/06 02:41:43;;;;;;;10.63;7.53;;;;;;;5.09;100.00;102932.09;2578148;55;20123;-74
2021/10/06 02:44:11;;;;;;;11.25;8.00;;;;;;;5.18;100.00;102931.09;2583480;55;20113;-74
2021/10/06 02:46:38;;;;;;;11.35;7.05;;;;;;;5.13;100.00;102932.94;2583354;55;20496;-74
2021/10/06 02:49:06;;;;;;;13.43;7.97;;;;;;;5.13;100.00;102938.22;2583315;55;20514;-74
2021/10/06 02:51:33;;;;;;;10.48;7.12;;;;;;;5.13;100.00;102939.09;2583307;55;20117;-74
2021/10/06 02:54:00;;;;;;;10.23;6.95;;;;;;;5.05;100.00;102932.19;2583381;55;20157;-74
2021/10/06 02:56:27;;;;;;;13.88;8.20;;;;;;;5.05;100.00;102938.34;2583308;55;20127;-74
2021/10/06 02:58:55;;;;;;;11.30;7.80;;;;;;;5.12;100.00;102940.00;2583267;55;20112;-73
2021/10/06 03:01:21;;;;;;;16.73;7.47;;;;;;;5.10;100.00;102947.06;2583339;55;20139;-74
2021/10/06 03:03:49;;;;;;;13.73;6.60;;;;;;;5.05;100.00;102946.28;2583204;55;20132;-74
2021/10/06 03:06:17;;;;;;;12.35;7.57;;;;;;;5.04;100.00;102939.25;2583243;55;20834;-74
2021/10/06 03:08:44;;;;;;;14.18;8.45;;;;;;;4.97;100.00;102953.47;2583186;55;20637;-74
2021/10/06 03:11:11;;;;;;;10.95;7.35;;;;;;;4.92;100.00;102944.75;2583214;55;20131;-74
2021/10/06 03:13:38;;;;;;;12.02;7.18;;;;;;;4.87;100.00;102943.03;2583260;55;20668;-74
2021/10/06 03:16:05;;;;;;;11.35;7.45;;;;;;;4.91;100.00;102942.97;2583393;55;20125;-74
2021/10/06 03:18:32;;;;;;;14.35;8.93;;;;;;;4.86;100.00;102943.03;2583243;55;20129;-73
2021/10/06 03:21:00;;;;;;;14.45;7.85;;;;;;;4.86;100.00;102943.94;2583406;55;20104;-74
2021/10/06 03:23:27;;;;;;;14.68;8.63;;;;;;;4.86;100.00;102950.97;2583295;55;20119;-74
2021/10/06 03:25:55;;;;;;;13.57;8.77;;;;;;;4.82;100.00;102950.19;2583158;55;20157;-73
2021/10/06 03:28:22;;;;;;;13.10;8.25;;;;;;;4.83;100.00;102953.69;2583256;55;20124;-73
2021/10/06 03:30:49;;;;;;;15.20;8.38;;;;;;;4.76;100.00;102950.25;2583229;55;20502;-73
2021/10/06 03:33:16;;;;;;;12.95;8.63;;;;;;;4.73;100.00;102945.03;2583071;55;20137;-74
2021/10/06 03:35:44;;;;;;;14.85;8.30;;;;;;;4.70;100.00;102952.97;2583209;55;20113;-74
2021/10/06 03:38:11;;;;;;;17.73;8.32;;;;;;;4.69;100.00;102951.25;2583077;55;20148;-73
2021/10/06 03:40:38;;;;;;;17.25;8.85;;;;;;;4.69;100.00;102945.94;2582975;55;20126;-73
2021/10/06 03:43:06;;;;;;;15.10;9.80;;;;;;;4.64;100.00;102953.09;2577723;55;20113;-74
2021/10/06 03:45:33;;;;;;;19.55;10.32;;;;;;;4.59;100.00;102948.72;2583215;55;20117;-74
2021/10/06 03:48:01;;;;;;;13.43;8.35;;;;;;;4.54;100.00;102963.78;2583107;55;20132;-73
2021/10/06 03:50:29;;;;;;;14.65;8.13;;;;;;;4.62;100.00;102954.88;2583214;55;20157;-73
2021/10/06 03:52:56;;;;;;;14.48;9.30;;;;;;;4.56;100.00;102951.41;2582985;55;20670;-73
2021/10/06 03:55:23;;;;;;;14.05;8.30;;;;;;;4.60;100.00;102962.84;2583090;55;20132;-73
2021/10/06 03:57:51;;;;;;;16.02;9.32;;;;;;;4.56;100.00;102959.34;2583140;55;20532;-73
2021/10/06 04:00:18;;;;;;;16.48;9.65;;;;;;;4.56;100.00;102956.72;2583066;55;20497;-73
2021/10/06 04:02:45;;;;;;;21.60;9.40;;;;;;;4.50;100.00;102953.28;2582992;55;20128;-73
2021/10/06 04:05:12;;;;;;;19.15;11.32;;;;;;;4.54;100.00;102953.22;2582960;55;20659;-73
2021/10/06 04:07:40;;;;;;;22.08;11.80;;;;;;;4.48;100.00;102957.72;2582913;55;20496;-73
2021/10/06 04:10:08;;;;;;;17.87;9.45;;;;;;;4.45;100.00;102953.34;2583199;55;20196;-73
2021/10/06 04:12:35;;;;;;;17.33;10.32;;;;;;;4.48;100.00;102961.22;2583187;55;20112;-73
2021/10/06 04:15:03;;;;;;;19.10;10.82;;;;;;;4.44;100.00;102967.47;2583035;55;20113;-73
2021/10/06 04:17:31;;;;;;;15.13;10.18;;;;;;;4.34;100.00;102953.47;2583142;55;20128;-73
2021/10/06 04:19:58;;;;;;;13.95;10.10;;;;;;;4.34;100.00;102950.81;2583146;55;20644;-73
2021/10/06 04:22:25;;;;;;;17.55;9.98;;;;;;;4.42;100.00;102969.25;2582925;55;20746;-72
2021/10/06 04:24:52;;;;;;;20.70;11.15;;;;;;;4.42;100.00;102975.41;2583153;55;20110;-73
2021/10/06 04:27:19;;;;;;;17.83;10.30;;;;;;;4.42;100.00;102974.53;2583086;55;20554;-73
2021/10/06 04:29:46;;;;;;;18.92;10.45;;;;;;;4.35;100.00;102964.94;2583114;55;20143;-72
2021/10/06 04:32:14;;;;;;;21.45;11.25;;;;;;;4.34;100.00;102971.12;2583051;55;20113;-73
2021/10/06 04:34:41;;;;;;;17.55;10.30;;;;;;;4.34;100.00;102971.97;2577504;55;20209;-73
2021/10/06 04:37:08;;;;;;;18.50;7.97;;;;;;;4.38;100.00;102975.47;2583223;55;20117;-72
2021/10/06 04:39:35;;;;;;;21.35;10.32;;;;;;;4.44;100.00;102978.03;2583121;55;20112;-73
2021/10/06 04:42:03;;;;;;;16.30;9.45;;;;;;;4.42;100.00;102979.84;2582953;55;20519;-73
2021/10/06 04:44:30;;;;;;;13.77;9.20;;;;;;;4.44;100.00;102978.03;2583098;55;20116;-73
2021/10/06 04:46:57;;;;;;;15.00;9.48;;;;;;;4.47;100.00;102972.69;2582860;55;20635;-73
2021/10/06 04:49:25;;;;;;;14.18;9.50;;;;;;;4.54;100.00;102978.78;2582859;55;20123;-74
2021/10/06 04:51:52;;;;;;;24.87;8.95;;;;;;;4.55;100.00;102984.03;2583197;55;20124;-73
2021/10/06 04:54:19;;;;;;;16.70;9.68;;;;;;;4.54;100.00;102974.38;2582853;55;20220;-73
2021/10/06 04:56:46;;;;;;;13.35;8.50;;;;;;;4.65;100.00;102965.41;2581881;55;20148;-74
2021/10/06 04:59:13;;;;;;;18.20;9.60;;;;;;;4.63;100.00;102975.16;2583456;55;20104;-74
2021/10/06 05:01:41;;;;;;;16.20;9.23;;;;;;;4.57;100.00;102974.31;2583012;55;20119;-73
2021/10/06 05:04:08;;;;;;;16.35;9.63;;;;;;;4.58;100.00;102981.34;2583472;55;20159;-74
2021/10/06 05:06:36;;;;;;;16.37;9.95;;;;;;;4.59;100.00;102975.16;2583337;55;20527;-74
2021/10/06 05:09:03;;;;;;;17.80;9.60;;;;;;;4.58;100.00;102969.91;2582652;55;20139;-74
2021/10/06 05:11:30;;;;;;;16.95;9.45;;;;;;;4.62;100.00;102989.28;2582601;55;20140;-72
2021/10/06 05:13:59;;;;;;;17.40;9.13;;;;;;;4.58;100.00;102980.50;2583314;55;20131;-73
2021/10/06 05:16:26;;;;;;;15.15;9.50;;;;;;;4.61;100.00;102980.44;2582000;55;20119;-72
2021/10/06 05:18:53;;;;;;;16.83;10.13;;;;;;;4.60;100.00;102982.19;2583306;55;20142;-73
2021/10/06 05:21:21;;;;;;;18.48;9.77;;;;;;;4.58;100.00;102978.72;2583275;55;20105;-73
2021/10/06 05:23:49;;;;;;;22.73;9.35;;;;;;;4.69;100.00;102996.19;2583153;55;20515;-72
2021/10/06 05:26:16;;;;;;;20.17;10.02;;;;;;;4.71;100.00;102983.81;2583131;55;20135;-73
2021/10/06 05:28:43;;;;;;;15.45;9.93;;;;;;;4.76;100.00;102989.03;2583228;55;20128;-73
2021/10/06 05:31:10;;;;;;;16.33;9.95;;;;;;;4.82;100.00;102987.22;2582391;55;20149;-74
2021/10/06 05:33:37;;;;;;;21.17;10.20;;;;;;;4.87;100.00;102990.66;2582976;55;20172;-72
2021/10/06 05:36:05;;;;;;;16.58;9.38;;;;;;;4.92;100.00;102973.84;2582564;55;20132;-72
2021/10/06 05:38:32;;;;;;;15.48;9.20;;;;;;;4.98;100.00;102984.31;2583334;55;20116;-74
2021/10/06 05:41:00;;;;;;;18.10;9.38;;;;;;;5.07;100.00;102978.87;2580104;55;20564;-71
2021/10/06 05:43:27;;;;;;;18.77;10.57;;;;;;;5.13;100.00;102978.81;2582726;55;20109;-72
2021/10/06 05:45:54;;;;;;;12.73;8.48;;;;;;;5.23;100.00;102994.53;2583283;55;20754;-69
2021/10/06 05:48:21;;;;;;;17.25;10.05;;;;;;;5.31;100.00;102976.75;2583329;55;20116;-71
2021/10/06 05:50:48;;;;;;;18.35;8.77;;;;;;;5.43;100.00;102971.25;2583373;55;20515;-72
2021/10/06 05:53:17;;;;;;;14.57;9.23;;;;;;;5.55;100.00;102975.44;2583229;55;20114;-73
2021/10/06 05:55:44;;;;;;;16.15;9.00;;;;;;;5.72;100.00;102968.97;2583258;55;20608;-73
2021/10/06 05:58:13;;;;;;;11.30;8.60;;;;;;;5.86;100.00;102976.66;2583624;55;20569;-72
2021/10/06 06:00:40;;;;;;;12.85;9.13;;;;;;;6.01;100.00;102974.59;2583435;55;20112;-70
2021/10/06 06:03:08;;;;;;;14.50;10.00;;;;;;;6.14;100.00;102978.81;2583405;55;20638;-70
2021/10/06 06:05:40;;;;;;;20.08;12.23;;;;;;;6.23;100.00;102968.03;2583686;55;20112;-73
2021/10/06 06:08:07;;;;;;;;;;;;;;;6.53;100.00;102986.84;2583878;55;20123;-71
2021/10/06 06:10:34;;;;;;;16.50;9.40;;;;;;;6.54;100.00;102982.37;2583604;55;20405;-73
2021/10/06 06:13:01;;;;;;;11.52;8.35;;;;;;;6.58;100.00;102970.81;2583551;55;20121;-73
2021/10/06 06:15:30;;;;;;;42.90;12.43;;;;;;;6.80;100.00;102986.25;2583411;55;20123;-72
2021/10/06 06:17:57;;;;;;;12.63;7.80;;;;;;;6.82;100.00;102980.00;2582445;55;20121;-73
2021/10/06 06:20:24;;;;;;;14.87;9.05;;;;;;;6.83;100.00;102983.50;2581586;55;20138;-72
2021/10/06 06:22:52;;;;;;;14.87;7.85;;;;;;;6.96;100.00;102984.09;2581474;55;20630;-72
2021/10/06 06:25:20;;;;;;;15.88;8.73;;;;;;;7.05;100.00;102977.69;2581619;55;20623;-72
2021/10/06 06:27:47;;;;;;;17.30;7.25;;;;;;;7.23;100.00;102989.66;2581752;55;20120;-73
2021/10/06 06:30:15;;;;;;;16.33;8.77;;;;;;;7.28;100.00;102995.72;2582068;55;20109;-72
2021/10/06 06:32:43;;;;;;;15.18;8.50;;;;;;;7.36;100.00;102977.81;2581594;55;20169;-73
2021/10/06 06:35:10;;;;;;;13.88;8.55;;;;;;;7.52;100.00;102996.03;2581982;55;20678;-72
2021/10/06 06:37:38;;;;;;;15.18;8.32;;;;;;;7.66;100.00;102990.31;2581704;55;20146;-72
2021/10/06 06:40:07;;;;;;;11.27;7.82;;;;;;;7.83;100.00;102997.88;2581708;55;20658;-72
2021/10/06 06:42:34;;;;;;;12.68;9.15;;;;;;;7.94;100.00;103001.09;2581713;55;20109;-72
2021/10/06 06:45:02;;;;;;;11.02;8.27;;;;;;;8.12;100.00;102990.88;2581490;55;20131;-72
2021/10/06 06:47:29;;;;;;;10.60;7.35;;;;;;;8.24;100.00;102997.62;2583039;55;20503;-72
2021/10/06 06:49:57;;;;;;;12.40;7.47;;;;;;;8.31;100.00;102990.31;2583328;55;20111;-72
2021/10/06 06:52:25;;;;;;;11.02;8.18;;;;;;;8.41;99.34;102989.13;2583450;55;20119;-72
2021/10/06 06:54:52;;;;;;;15.60;8.70;;;;;;;8.43;99.45;102997.06;2583391;55;20113;-72
2021/10/06 06:57:19;;;;;;;10.93;7.18;;;;;;;8.51;98.39;102992.44;2583563;55;20530;-72
2021/10/06 06:59:46;;;;;;;11.38;7.75;;;;;;;8.55;98.67;102991.41;2583293;55;20124;-72
2021/10/06 07:02:13;;;;;;;16.65;9.65;;;;;;;8.67;98.50;102995.50;2583543;55;20124;-73
2021/10/06 07:04:40;;;;;;;17.90;9.82;;;;;;;8.61;97.33;102988.56;2583379;55;20136;-72
2021/10/06 07:07:12;;;;;;;12.65;8.68;;;;;;;8.61;97.25;102987.69;2583298;55;20119;-72
2021/10/06 07:09:47;;;;;;;9.40;6.57;;;;;;;8.79;96.20;102977.41;2583378;55;20141;-72
2021/10/06 07:12:15;;;;;;;14.73;8.50;;;;;;;8.79;96.64;102982.72;2583283;55;20642;-72
2021/10/06 07:14:42;;;;;;;20.02;8.95;;;;;;;8.91;96.57;102996.53;2582480;55;20507;-72
2021/10/06 07:17:09;;;;;;;25.48;9.07;;;;;;;9.05;95.95;102990.75;2583464;55;20553;-72
2021/10/06 07:19:37;;;;;;;11.48;7.47;;;;;;;9.13;94.86;102997.62;2583286;55;20109;-72
2021/10/06 07:22:05;;;;;;;10.27;7.35;;;;;;;9.24;94.58;102994.59;2583318;55;20160;-72
2021/10/06 07:24:33;;;;;;;15.10;7.75;;;;;;;9.36;93.08;102988.00;2583300;55;20109;-72
2021/10/06 07:27:00;;;;;;;17.25;8.38;;;;;;;9.38;93.16;102995.03;2583176;55;20149;-72
2021/10/06 07:29:27;;;;;;;22.27;10.20;;;;;;;9.58;93.63;102994.34;2583204;55;20100;-72
2021/10/06 07:31:54;;;;;;;14.93;9.77;;;;;;;9.82;91.16;102997.09;2583162;55;20165;-72
2021/10/06 07:34:21;;;;;;;12.80;7.75;;;;;;;10.05;89.80;102998.03;2583268;55;20109;-72
2021/10/06 07:36:49;;;;;;;12.48;8.20;;;;;;;10.16;88.71;102998.50;2583196;55;20135;-72
2021/10/06 07:39:16;;;;;;;14.75;9.35;;;;;;;10.26;88.36;102993.69;2583049;55;20100;-72
2021/10/06 07:41:44;;;;;;;12.70;8.95;;;;;;;10.38;88.37;102997.69;2582701;55;20546;-72
2021/10/06 07:44:13;;;;;;;12.13;8.18;;;;;;;10.43;86.69;103001.09;2582929;55;20117;-72
2021/10/06 07:46:42;;;;;;;11.98;8.45;;;;;;;10.49;87.33;102992.00;2583385;55;20123;-72
2021/10/06 07:49:09;;;;;;;16.17;8.05;;;;;;;10.57;85.88;102989.91;2583094;55;20123;-72
2021/10/06 07:51:36;;;;;;;14.02;7.87;;;;;;;10.75;85.46;103002.56;2583119;55;20117;-72
2021/10/06 07:54:05;;;;;;;10.68;7.70;;;;;;;10.84;85.84;103007.56;2583170;55;20101;-72
2021/10/06 07:56:33;;;;;;;13.27;8.48;;;;;;;11.03;83.56;102996.13;2583360;55;20101;-73
2021/10/06 07:59:01;;;;;;;11.68;7.40;;;;;;;11.04;84.46;102989.84;2583216;55;20113;-72
2021/10/06 08:01:28;;;;;;;9.20;7.78;;;;;;;11.14;83.53;103000.09;2583098;55;20131;-72
2021/10/06 08:03:55;;;;;;;9.98;7.35;;;;;;;11.12;83.26;103001.97;2583109;55;20123;-72
2021/10/06 08:06:22;;;;;;;14.55;7.35;;;;;;;11.06;81.84;103007.53;2582954;55;20177;-72
2021/10/06 08:08:49;;;;;;;16.15;8.10;;;;;;;11.12;80.99;103006.41;2582324;55;20291;-73
2021/10/06 08:11:16;;;;;;;16.85;8.27;;;;;;;11.21;81.59;103011.38;2583303;55;20121;-72
2021/10/06 08:13:43;;;;;;;13.30;8.30;;;;;;;11.37;81.26;103005.41;2582398;55;20102;-73
2021/10/06 08:16:11;;;;;;;15.55;8.70;;;;;;;11.47;80.87;102996.06;2583196;55;20634;-72
2021/10/06 08:18:39;;;;;;;13.90;7.43;;;;;;;11.58;80.83;103000.97;2583120;55;20447;-72
2021/10/06 08:21:06;;;;;;;10.30;7.12;;;;;;;11.68;81.59;102996.06;2583003;55;20134;-72
2021/10/06 08:23:32;;;;;;;8.68;6.75;;;;;;;11.83;77.46;102995.41;2583097;55;20127;-72
2021/10/06 08:26:00;;;;;;;13.00;7.30;;;;;;;11.79;77.27;103004.50;2583702;55;20139;-72
2021/10/06 08:28:27;;;;;;;11.05;8.00;;;;;;;11.83;77.68;103000.75;2584207;55;20109;-72
2021/10/06 08:30:54;;;;;;;12.00;7.22;;;;;;;12.03;78.60;103001.72;2583188;55;20121;-73
2021/10/06 08:33:23;;;;;;;10.52;6.95;;;;;;;12.08;75.87;102996.16;2583821;55;20164;-74
2021/10/06 08:35:50;;;;;;;10.43;7.55;;;;;;;12.08;76.62;102996.16;2583904;55;20871;-73
2021/10/06 08:38:17;;;;;;;22.58;8.55;;;;;;;12.21;77.97;102993.75;2583889;55;20194;-73
2021/10/06 08:40:44;;;;;;;20.48;8.32;;;;;;;12.37;76.00;102994.81;2583974;55;20615;-73
2021/10/06 08:43:12;;;;;;;11.75;7.50;;;;;;;12.61;74.67;102999.94;2584016;55;20511;-72
2021/10/06 08:45:41;;;;;;;12.75;8.20;;;;;;;12.85;75.38;103002.38;2583815;55;20127;-72
2021/10/06 08:48:10;;;;;;;9.98;7.05;;;;;;;12.91;71.76;103003.91;2583791;55;20127;-73
2021/10/06 08:50:39;;;;;;;10.15;7.22;;;;;;;12.92;71.35;102997.59;2583849;55;20113;-72
2021/10/06 08:53:07;;;;;;;9.23;7.18;;;;;;;12.93;72.13;103000.22;2584014;55;20113;-73
2021/10/06 08:55:35;;;;;;;11.95;7.22;;;;;;;13.00;70.73;102994.53;2583959;55;20126;-73
2021/10/06 08:58:04;;;;;;;18.00;8.35;;;;;;;13.13;72.32;102995.69;2583715;55;20108;-72
2021/10/06 09:00:51;;;;;;;8.55;6.68;;;;;;;13.20;68.75;102994.41;2583902;55;20173;-73
2021/10/06 09:03:25;;;;;;;11.20;6.60;;;;;;;13.02;70.62;102998.00;2583949;55;20109;-73
2021/10/06 09:06:08;;;;;;;11.88;7.37;;;;;;;13.01;69.95;102990.91;2583623;55;20499;-73
2021/10/06 09:08:38;;;;;;;10.50;7.57;;;;;;;13.02;69.98;103012.28;2583883;55;20115;-73
2021/10/06 09:11:07;;;;;;;10.65;6.65;;;;;;;13.02;69.04;102998.00;2583825;55;20121;-72
2021/10/06 09:13:36;;;;;;;12.48;6.72;;;;;;;13.09;69.90;103020.88;2583894;55;20115;-73
2021/10/06 09:16:04;;;;;;;8.63;6.43;;;;;;;13.07;68.62;103004.84;2583588;55;20121;-73
2021/10/06 09:18:32;;;;;;;9.75;7.30;;;;;;;13.18;68.52;103009.69;2583808;55;20120;-73
2021/10/06 09:21:01;;;;;;;10.52;7.18;;;;;;;13.30;68.36;103007.34;2583654;55;20638;-73
2021/10/06 09:23:29;;;;;;;9.02;7.25;;;;;;;13.29;69.33;102995.78;2583803;55;20516;-74
2021/10/06 09:25:59;;;;;;;33.00;9.65;;;;;;;13.52;68.76;102992.87;2583626;55;20128;-73
2021/10/06 09:28:29;;;;;;;11.65;6.93;;;;;;;13.75;68.59;102986.31;2583753;55;20104;-73
2021/10/06 09:30:58;;;;;;;10.23;6.72;;;;;;;13.90;65.00;102990.00;2583801;55;20128;-73
2021/10/06 09:33:37;;;;;;;14.73;7.85;;;;;;;13.97;64.96;102995.91;2583770;55;20101;-73
2021/10/06 09:36:10;;;;;;;9.82;6.40;;;;;;;14.08;65.25;102980.09;2583708;55;20131;-73
2021/10/06 09:38:47;;;;;;;18.27;7.62;;;;;;;14.08;63.55;102992.66;2583413;55;20113;-73
2021/10/06 09:41:30;;;;;;;14.15;7.07;;;;;;;14.04;64.77;102994.62;2583728;55;20734;-73
2021/10/06 09:44:02;;;;;;;9.85;7.35;;;;;;;13.84;63.89;102990.34;2583820;55;20638;-72
2021/10/06 09:46:46;;;;;;;12.70;7.93;;;;;;;13.72;64.19;102981.97;2583624;55;20131;-74
2021/10/06 09:49:18;;;;;;;19.30;7.55;;;;;;;13.82;63.69;102992.22;2583615;55;20112;-73
2021/10/06 09:51:46;;;;;;;11.95;7.75;;;;;;;13.81;63.13;102980.62;2583596;55;20133;-73
2021/10/06 09:54:14;;;;;;;11.20;7.40;;;;;;;13.98;65.47;102979.72;2583581;55;20809;-74
2021/10/06 09:56:43;;;;;;;10.90;8.13;;;;;;;14.10;63.48;102990.75;2583525;55;20116;-73
2021/10/06 09:59:12;;;;;;;8.80;6.50;;;;;;;14.13;62.48;102979.81;2583505;55;20105;-72
2021/10/06 10:01:40;;;;;;;10.00;6.85;;;;;;;14.13;62.11;102979.81;2583680;55;20633;-73
2021/10/06 10:04:09;;;;;;;9.48;7.12;;;;;;;14.11;62.33;102984.41;2583503;55;20784;-73
2021/10/06 10:06:38;;;;;;;10.50;7.72;;;;;;;14.26;62.19;102972.84;2583656;55;20124;-73
2021/10/06 10:09:07;;;;;;;7.95;6.03;;;;;;;14.36;62.50;102977.72;2583725;55;20658;-74
2021/10/06 10:11:37;;;;;;;8.10;5.40;;;;;;;14.53;61.73;102990.19;2583791;55;20503;-74
2021/10/06 10:14:06;;;;;;;10.57;6.43;;;;;;;14.66;61.95;102974.25;2583625;55;20102;-72
2021/10/06 10:16:34;;;;;;;10.05;7.22;;;;;;;14.61;60.87;102980.75;2583413;55;20128;-72
2021/10/06 10:19:06;;;;;;;9.30;7.55;;;;;;;14.55;61.26;102969.47;2583443;55;20654;-72
2021/10/06 10:21:35;;;;;;;9.48;6.87;;;;;;;14.55;61.75;102981.09;2583413;55;20109;-73
2021/10/06 10:24:11;;;;;;;19.37;6.53;;;;;;;14.55;61.08;102977.53;2583409;55;20117;-73
2021/10/06 10:27:01;;;;;;;14.38;6.15;;;;;;;14.53;60.58;102977.66;2583678;55;20169;-72
2021/10/06 10:29:33;;;;;;;9.35;6.22;;;;;;;14.44;61.57;102964.75;2583538;55;20123;-73
2021/10/06 10:32:01;;;;;;;8.82;6.53;;;;;;;14.57;60.45;102976.50;2583532;55;20112;-71
2021/10/06 10:35:03;;;;;;;11.80;6.45;;;;;;;14.77;60.60;102974.53;2583500;55;20167;-73
2021/10/06 10:38:14;;;;;;;13.20;6.12;;;;;;;14.87;60.11;102988.31;2583697;55;20120;-71
2021/10/06 10:40:44;;;;;;;10.82;6.37;;;;;;;14.84;59.36;102975.06;2583568;55;20130;-72
2021/10/06 10:43:13;;;;;;;10.93;6.22;;;;;;;14.79;59.24;102956.50;2583360;55;20166;-72
2021/10/06 10:45:52;;;;;;;8.73;5.40;;;;;;;14.86;59.52;102976.69;2583351;55;20134;-72
2021/10/06 10:48:22;;;;;;;11.57;5.70;;;;;;;14.87;57.69;102964.12;2582959;55;20176;-73
2021/10/06 10:51:11;;;;;;;11.80;6.07;;;;;;;14.96;59.34;102968.97;2583390;55;20120;-73
2021/10/06 10:53:59;;;;;;;12.93;5.85;;;;;;;15.03;57.77;102978.41;2582303;55;20101;-73
2021/10/06 10:56:43;;;;;;;8.32;5.50;;;;;;;15.03;58.60;102947.94;2583482;55;20147;-72
2021/10/06 10:59:12;;;;;;;18.42;5.78;;;;;;;15.00;57.07;102954.41;2582789;55;20178;-73
2021/10/06 11:01:42;;;;;;;8.68;5.70;;;;;;;15.00;57.69;102954.41;2583315;55;20109;-74
2021/10/06 11:04:11;;;;;;;12.18;5.55;;;;;;;14.91;57.13;102954.94;2583110;55;20113;-73
2021/10/06 11:06:41;;;;;;;9.25;6.37;;;;;;;14.91;57.39;102957.62;2583407;55;20121;-72
2021/10/06 11:09:39;;;;;;;10.25;5.53;;;;;;;15.15;57.66;102946.38;2583328;55;20495;-72
2021/10/06 11:12:39;;;;;;;8.55;5.87;;;;;;;15.32;56.74;102949.88;2583246;55;20109;-74
2021/10/06 11:15:32;;;;;;;7.22;5.50;;;;;;;15.22;57.13;102941.50;2583219;55;20105;-73
2021/10/06 11:18:21;;;;;;;7.70;5.15;;;;;;;15.23;56.94;102953.97;2583617;55;20131;-71
2021/10/06 11:20:52;;;;;;;52.47;9.55;;;;;;;15.23;55.36;102948.59;2583431;55;20113;-73
2021/10/06 11:23:52;;;;;;;13.73;5.97;;;;;;;15.27;56.74;102939.41;2583410;55;20119;-72
2021/10/06 11:26:36;;;;;;;11.95;5.50;;;;;;;15.27;56.60;102947.47;2583061;55;20106;-73
2021/10/06 11:29:06;;;;;;;8.60;5.35;;;;;;;15.33;55.81;102960.53;2582868;55;20650;-72